No particular awareness of the weather is required.    There are no Weather-warnings


Meteo18 Weather Cam more information Meteo18 Weather Cam


Thunder radar more information blitzortung!


Rain radar more information rain snow radar


Visit our other weather sites:

Template documentation
and downloads

And another site



Weather Underground History page Text

Daily Summary for August 31, 2017 Units:  English    Metric   Both
« Previous Day
Next Day »
Daily Weekly Monthly Yearly Custom
  High: Low: Average:
Temperature: TemperatureC °F 11.7 °F 15.1 °F
Dew Point: DewpointC °F 8.8 °F 10.4 °F
Humidity: Humidity % 49 % 75 %
Wind Speed: WindSpeedKMH mph 0.0 mph 4.3 mph
Wind Gust: WindSpeedGustKMH mph - -
Wind:- - WSW
Pressure: PressurehPa in 1014.4 in -
Precipitation: 0.0 in    
Historical Graphs
 
 
Tabular Data for August 31, 2017
Time Temperature Dew Point Pressure Wind Wind Speed Wind Gust Humidity Rainfall Rate (Hourly)
TemperatureC °F DewpointC °F PressurehPa in Calm     Humidity % HourlyPrecipMM in
00:02 15.8 °F 14.3 °F 1014.4 in WNW 8.0 mph 14.5 mph 91 % 0.0 in
00:12 15.5 °F 14.2 °F 1014.8 in WNW 8.0 mph 17.7 mph 92 % 0.0 in
00:17 15.4 °F 14.1 °F 1014.8 in NNW 11.3 mph 17.7 mph 92 % 0.0 in
00:22 15.3 °F 14.0 °F 1014.8 in NW 9.7 mph 17.7 mph 92 % 0.0 in
00:32 15.2 °F 13.7 °F 1014.8 in NW 11.3 mph 16.1 mph 91 % 0.0 in
00:42 15.2 °F 13.7 °F 1014.8 in WNW 4.8 mph 17.7 mph 91 % 0.0 in
00:52 15.1 °F 13.6 °F 1015.1 in West 4.8 mph 17.7 mph 91 % 0.0 in
00:57 15.1 °F 13.8 °F 1014.8 in NNW 6.4 mph 17.7 mph 92 % 0.0 in
01:02 15.1 °F 13.8 °F 1014.8 in NNW 9.7 mph 17.7 mph 92 % 0.0 in
01:07 15.0 °F 13.7 °F 1015.1 in WNW 16.1 mph 16.1 mph 92 % 0.0 in
01:12 14.7 °F 13.4 °F 1015.1 in WNW 8.0 mph 12.9 mph 92 % 0.0 in
01:17 14.5 °F 13.2 °F 1015.1 in WNW 8.0 mph 17.7 mph 92 % 0.0 in
01:22 14.3 °F 13.0 °F 1015.1 in NNW 4.8 mph 17.7 mph 92 % 0.0 in
01:32 14.1 °F 12.8 °F 1015.5 in North 9.7 mph 17.7 mph 92 % 0.0 in
01:42 13.9 °F 12.6 °F 1015.5 in NNW 16.1 mph 16.1 mph 92 % 0.0 in
01:47 13.9 °F 12.6 °F 1015.5 in WNW 12.9 mph 24.1 mph 92 % 0.0 in
01:52 13.9 °F 12.6 °F 1015.5 in West 9.7 mph 24.1 mph 92 % 0.0 in
01:57 13.9 °F 12.6 °F 1015.5 in NNW 16.1 mph 24.1 mph 92 % 0.0 in
02:02 13.9 °F 12.6 °F 1015.5 in NW 14.5 mph 19.3 mph 92 % 0.0 in
02:12 13.8 °F 12.5 °F 1015.8 in NW 4.8 mph 19.3 mph 92 % 0.0 in
02:17 13.7 °F 12.6 °F 1015.8 in West 12.9 mph 19.3 mph 93 % 0.0 in
02:22 13.7 °F 12.6 °F 1015.8 in NW 4.8 mph 17.7 mph 93 % 0.0 in
02:32 13.7 °F 12.6 °F 1016.1 in NNW 11.3 mph 17.7 mph 93 % 0.0 in
02:42 13.7 °F 12.6 °F 1016.1 in WNW 6.4 mph 19.3 mph 93 % 0.0 in
02:47 13.6 °F 12.5 °F 1016.1 in NW 6.4 mph 19.3 mph 93 % 0.0 in
02:52 13.5 °F 12.4 °F 1016.1 in NNW 8.0 mph 11.3 mph 93 % 0.0 in
02:57 13.4 °F 12.3 °F 1016.1 in NW 4.8 mph 11.3 mph 93 % 0.0 in
03:02 13.4 °F 12.5 °F 1016.1 in West 4.8 mph 14.5 mph 94 % 0.0 in
03:12 13.3 °F 12.2 °F 1016.1 in WNW 8.0 mph 14.5 mph 93 % 0.0 in
03:17 13.2 °F 12.1 °F 1016.1 in NW 3.2 mph 22.5 mph 93 % 0.0 in
03:22 13.1 °F 12.0 °F 1016.1 in WNW 9.7 mph 25.7 mph 93 % 0.0 in
03:27 13.1 °F 12.0 °F 1016.5 in WNW 6.4 mph 25.7 mph 93 % 0.0 in
03:32 13.0 °F 11.9 °F 1016.5 in West 3.2 mph 25.7 mph 93 % 0.0 in
03:42 13.0 °F 11.9 °F 1016.8 in NW 3.2 mph 17.7 mph 93 % 0.0 in
03:52 12.8 °F 11.5 °F 1016.8 in NW 8.0 mph 19.3 mph 92 % 0.0 in
03:57 12.6 °F 11.3 °F 1016.8 in NNW 4.8 mph 17.7 mph 92 % 0.0 in
04:02 12.5 °F 11.1 °F 1017.2 in North 3.2 mph 19.3 mph 91 % 0.0 in
04:12 12.6 °F 11.0 °F 1017.2 in NNE 11.3 mph 19.3 mph 90 % 0.0 in
04:17 12.5 °F 11.1 °F 1017.2 in WSW 4.8 mph 19.3 mph 91 % 0.0 in
04:22 12.5 °F 11.2 °F 1017.5 in NNW 4.8 mph 19.3 mph 92 % 0.0 in
04:32 12.4 °F 11.1 °F 1017.5 in WNW 4.8 mph 17.7 mph 92 % 0.0 in
04:37 12.4 °F 11.1 °F 1017.5 in NNW 4.8 mph 17.7 mph 92 % 0.0 in
04:42 12.4 °F 11.0 °F 1017.5 in NW 4.8 mph 17.7 mph 91 % 0.0 in
04:47 12.4 °F 11.0 °F 1017.5 in NW 8.0 mph 16.1 mph 91 % 0.0 in
04:52 12.4 °F 11.0 °F 1017.5 in NW 14.5 mph 17.7 mph 91 % 0.0 in
04:57 12.3 °F 10.9 °F 1017.5 in NNW 4.8 mph 17.7 mph 91 % 0.0 in
05:02 12.4 °F 11.1 °F 1017.8 in NNW 3.2 mph 17.7 mph 92 % 0.0 in
05:12 12.3 °F 11.0 °F 1017.8 in NW 4.8 mph 16.1 mph 92 % 0.0 in
05:22 12.4 °F 11.1 °F 1017.8 in NW 4.8 mph 11.3 mph 92 % 0.0 in
05:32 12.4 °F 11.1 °F 1018.2 in North 3.2 mph 11.3 mph 92 % 0.0 in
05:42 12.4 °F 11.1 °F 1018.2 in NW 3.2 mph 9.7 mph 92 % 0.0 in
05:52 12.3 °F 11.0 °F 1018.5 in NW 1.6 mph 11.3 mph 92 % 0.0 in
06:02 12.2 °F 10.8 °F 1018.5 in NW 6.4 mph 17.7 mph 91 % 0.0 in
06:12 12.1 °F 10.7 °F 1018.8 in NNW 3.2 mph 17.7 mph 91 % 0.0 in
06:17 12.0 °F 10.6 °F 1018.8 in NW 3.2 mph 17.7 mph 91 % 0.0 in
06:22 12.0 °F 10.6 °F 1018.8 in NW 3.2 mph 17.7 mph 91 % 0.0 in
06:32 11.9 °F 10.5 °F 1018.8 in NNW 4.8 mph 11.3 mph 91 % 0.0 in
06:37 11.9 °F 10.3 °F 1019.2 in WNW 4.8 mph 11.3 mph 90 % 0.0 in
06:42 11.9 °F 10.3 °F 1019.2 in NNW 4.8 mph 14.5 mph 90 % 0.0 in
06:52 11.8 °F 10.2 °F 1019.2 in WNW 4.8 mph 14.5 mph 90 % 0.0 in
06:57 11.8 °F 10.2 °F 1019.5 in NW 11.3 mph 14.5 mph 90 % 0.0 in
07:02 11.8 °F 10.2 °F 1019.5 in NNE 3.2 mph 14.5 mph 90 % 0.0 in
07:12 11.7 °F 10.3 °F 1019.9 in WNW 4.8 mph 12.9 mph 91 % 0.0 in
07:17 11.7 °F 10.3 °F 1019.9 in NW 6.4 mph 12.9 mph 91 % 0.0 in
07:22 11.7 °F 10.1 °F 1019.9 in NNW 3.2 mph 9.7 mph 90 % 0.0 in
07:32 11.7 °F 10.1 °F 1019.9 in WNW 12.9 mph 12.9 mph 90 % 0.0 in
07:37 11.7 °F 10.1 °F 1019.9 in NW 6.4 mph 12.9 mph 90 % 0.0 in
07:42 11.7 °F 10.1 °F 1020.2 in West 8.0 mph 12.9 mph 90 % 0.0 in
07:52 11.7 °F 9.9 °F 1020.5 in WNW 4.8 mph 9.7 mph 89 % 0.0 in
07:57 11.7 °F 9.9 °F 1020.2 in WNW 4.8 mph 9.7 mph 89 % 0.0 in
08:02 11.7 °F 9.9 °F 1020.2 in WNW 3.2 mph 12.9 mph 89 % 0.0 in
08:12 11.7 °F 9.9 °F 1020.5 in NW 8.0 mph 9.7 mph 89 % 0.0 in
08:17 11.7 °F 9.9 °F 1020.5 in NW 3.2 mph 9.7 mph 89 % 0.0 in
08:22 11.7 °F 9.9 °F 1020.5 in NW 1.6 mph 11.3 mph 89 % 0.0 in
08:32 11.7 °F 9.9 °F 1020.5 in WSW 1.6 mph 14.5 mph 89 % 0.0 in
08:37 11.7 °F 9.9 °F 1020.9 in NW 3.2 mph 14.5 mph 89 % 0.0 in
08:42 11.8 °F 10.0 °F 1020.9 in WNW 1.6 mph 11.3 mph 89 % 0.0 in
08:52 12.0 °F 10.2 °F 1020.9 in WNW 4.8 mph 8.0 mph 89 % 0.0 in
08:57 12.0 °F 10.2 °F 1020.9 in West 3.2 mph 8.0 mph 89 % 0.0 in
09:02 12.1 °F 10.3 °F 1020.9 in WNW 6.4 mph 12.9 mph 89 % 0.0 in
09:12 12.4 °F 10.3 °F 1021.2 in NW 1.6 mph 12.9 mph 87 % 0.0 in
09:22 12.5 °F 10.2 °F 1021.2 in WNW 9.7 mph 14.5 mph 86 % 0.0 in
09:32 12.6 °F 10.5 °F 1021.6 in WNW 1.6 mph 14.5 mph 87 % 0.0 in
09:37 12.7 °F 10.4 °F 1021.6 in West 6.4 mph 14.5 mph 86 % 0.0 in
09:42 12.7 °F 10.2 °F 1021.6 in NNW 4.8 mph 14.5 mph 85 % 0.0 in
09:52 13.3 °F 10.8 °F 1021.6 in NNW 12.9 mph 12.9 mph 85 % 0.0 in
10:02 13.3 °F 10.3 °F 1021.6 in NW 3.2 mph 12.9 mph 82 % 0.0 in
10:07 13.2 °F 10.4 °F 1021.9 in NW 1.6 mph 12.9 mph 83 % 0.0 in
10:12 13.2 °F 10.4 °F 1021.9 in WNW 4.8 mph 14.5 mph 83 % 0.0 in
10:17 13.2 °F 10.4 °F 1021.9 in WNW 8.0 mph 14.5 mph 83 % 0.0 in
10:22 13.4 °F 10.6 °F 1021.9 in NNW 3.2 mph 14.5 mph 83 % 0.0 in
10:32 14.0 °F 10.6 °F 1021.9 in NW 1.6 mph 14.5 mph 80 % 0.0 in
10:37 14.0 °F 10.6 °F 1022.2 in WNW 3.2 mph 14.5 mph 80 % 0.0 in
10:42 13.7 °F 10.5 °F 1022.2 in NW 1.6 mph 14.5 mph 81 % 0.0 in
10:52 14.0 °F 10.4 °F 1022.2 in North 4.8 mph 14.5 mph 79 % 0.0 in
10:57 14.1 °F 10.7 °F 1022.2 in NNW 4.8 mph 14.5 mph 80 % 0.0 in
11:02 14.4 °F 10.6 °F 1022.6 in NE 6.4 mph 11.3 mph 78 % 0.0 in
11:12 14.7 °F 10.3 °F 1022.6 in WNW 4.8 mph 12.9 mph 75 % 0.0 in
11:22 14.7 °F 10.3 °F 1022.6 in NW 3.2 mph 12.9 mph 75 % 0.0 in
11:32 15.2 °F 10.6 °F 1022.6 in NNW 6.4 mph 11.3 mph 74 % 0.0 in
11:42 15.3 °F 10.3 °F 1022.6 in WNW 6.4 mph 14.5 mph 72 % 0.0 in
11:52 15.8 °F 10.8 °F 1022.2 in NW 8.0 mph 12.9 mph 72 % 0.0 in
12:02 16.0 °F 10.3 °F 1022.6 in NNW 8.0 mph 16.1 mph 69 % 0.0 in
12:12 16.3 °F 10.4 °F 1022.6 in NNE 9.7 mph 16.1 mph 68 % 0.0 in
12:17 16.4 °F 10.0 °F 1022.6 in NE 9.7 mph 17.7 mph 66 % 0.0 in
12:22 16.6 °F 10.0 °F 1022.6 in NNW 8.0 mph 17.7 mph 65 % 0.0 in
12:32 16.4 °F 9.8 °F 1022.6 in WNW 4.8 mph 12.9 mph 65 % 0.0 in
12:42 16.6 °F 10.0 °F 1022.6 in NE 6.4 mph 12.9 mph 65 % 0.0 in
12:47 16.8 °F 10.0 °F 1022.6 in NE 6.4 mph 12.9 mph 64 % 0.0 in
12:52 17.1 °F 9.8 °F 1022.6 in NW 3.2 mph 14.5 mph 62 % 0.0 in
12:57 17.3 °F 9.9 °F 1022.6 in North 6.4 mph 14.5 mph 62 % 0.0 in
13:02 17.4 °F 9.8 °F 1022.2 in West 3.2 mph 14.5 mph 61 % 0.0 in
13:12 17.3 °F 9.2 °F 1022.6 in WNW 8.0 mph 16.1 mph 59 % 0.0 in
13:17 17.3 °F 9.5 °F 1022.6 in South 1.6 mph 11.3 mph 60 % 0.0 in
13:22 17.4 °F 9.3 °F 1022.6 in WNW 1.6 mph 11.3 mph 59 % 0.0 in
13:32 18.1 °F 9.4 °F 1022.6 in NE 4.8 mph 11.3 mph 57 % 0.0 in
13:42 18.2 °F 9.5 °F 1022.2 in NNE 1.6 mph 12.9 mph 57 % 0.0 in
13:47 18.4 °F 9.7 °F 1022.2 in NNE 9.7 mph 11.3 mph 57 % 0.0 in
13:57 18.5 °F 9.6 °F 1022.2 in Calm   12.9 mph 56 % 0.0 in
14:02 18.7 °F 9.7 °F 1022.2 in WNW 3.2 mph 12.9 mph 56 % 0.0 in
14:07 18.6 °F 9.4 °F 1022.2 in West 1.6 mph 14.5 mph 55 % 0.0 in
14:12 18.6 °F 9.6 °F 1022.2 in NNE 6.4 mph 14.5 mph 56 % 0.0 in
14:17 18.4 °F 9.5 °F 1022.2 in North 6.4 mph 17.7 mph 56 % 0.0 in
14:22 18.5 °F 9.3 °F 1022.2 in NNW 4.8 mph 17.7 mph 55 % 0.0 in
14:32 18.8 °F 9.0 °F 1022.2 in Calm   12.9 mph 53 % 0.0 in
14:42 18.6 °F 8.8 °F 1022.2 in NW 3.2 mph 9.7 mph 53 % 0.0 in
14:47 18.7 °F 9.2 °F 1022.2 in NNE 8.0 mph 9.7 mph 54 % 0.0 in
14:52 19.1 °F 9.3 °F 1022.2 in Calm   9.7 mph 53 % 0.0 in
15:02 19.7 °F 9.6 °F 1022.2 in North 11.3 mph 12.9 mph 52 % 0.0 in
15:12 18.9 °F 8.8 °F 1022.2 in ENE 6.4 mph 12.9 mph 52 % 0.0 in
15:17 18.9 °F 9.1 °F 1022.2 in NNW 4.8 mph 22.5 mph 53 % 0.0 in
15:22 18.9 °F 9.1 °F 1021.9 in NNE 9.7 mph 22.5 mph 53 % 0.0 in
15:32 18.8 °F 9.3 °F 1021.9 in NW 3.2 mph 11.3 mph 54 % 0.0 in
15:42 18.9 °F 9.1 °F 1021.9 in NNW 3.2 mph 11.3 mph 53 % 0.0 in
15:52 18.9 °F 9.1 °F 1021.9 in North 4.8 mph 9.7 mph 53 % 0.0 in
16:02 19.1 °F 9.0 °F 1021.9 in WNW 3.2 mph 11.3 mph 52 % 0.0 in
16:12 19.1 °F 9.0 °F 1021.9 in NNE 4.8 mph 11.3 mph 52 % 0.0 in
16:17 19.1 °F 9.6 °F 1021.9 in WNW 8.0 mph 11.3 mph 54 % 0.0 in
16:22 19.0 °F 9.5 °F 1021.9 in NNE 3.2 mph 9.7 mph 54 % 0.0 in
16:27 19.1 °F 9.3 °F 1021.9 in NW 3.2 mph 9.7 mph 53 % 0.0 in
16:32 19.1 °F 9.3 °F 1021.6 in WNW 4.8 mph 9.7 mph 53 % 0.0 in
16:42 18.9 °F 9.4 °F 1021.6 in WNW 1.6 mph 11.3 mph 54 % 0.0 in
16:47 19.3 °F 9.5 °F 1021.6 in North 1.6 mph 11.3 mph 53 % 0.0 in
16:52 19.4 °F 9.6 °F 1021.6 in North 8.0 mph 9.7 mph 53 % 0.0 in
16:57 19.7 °F 9.9 °F 1021.6 in NNE 1.6 mph 11.3 mph 53 % 0.0 in
17:02 20.0 °F 9.6 °F 1021.6 in WNW 3.2 mph 11.3 mph 51 % 0.0 in
17:12 20.1 °F 9.4 °F 1021.6 in NW 4.8 mph 9.7 mph 50 % 0.0 in
17:17 20.2 °F 9.7 °F 1021.6 in Calm   9.7 mph 51 % 0.0 in
17:22 20.2 °F 9.1 °F 1021.6 in Calm   8.0 mph 49 % 0.0 in
17:32 20.1 °F 9.4 °F 1021.6 in SW 3.2 mph 8.0 mph 50 % 0.0 in
17:42 20.1 °F 9.4 °F 1021.6 in NE 3.2 mph 6.4 mph 50 % 0.0 in
17:52 19.8 °F 9.1 °F 1021.6 in Calm   11.3 mph 50 % 0.0 in
17:57 19.9 °F 9.5 °F 1021.6 in NNW 4.8 mph 12.9 mph 51 % 0.0 in
18:02 20.2 °F 9.1 °F 1021.6 in Calm   12.9 mph 49 % 0.0 in
18:12 20.1 °F 9.1 °F 1021.6 in NNE 8.0 mph 8.0 mph 49 % 0.0 in
18:17 19.8 °F 9.1 °F 1021.6 in North 1.6 mph 11.3 mph 50 % 0.0 in
18:22 19.7 °F 9.0 °F 1021.6 in NE 4.8 mph 11.3 mph 50 % 0.0 in
18:32 19.5 °F 9.1 °F 1021.6 in North 1.6 mph 11.3 mph 51 % 0.0 in
18:42 19.5 °F 9.1 °F 1021.6 in ENE 1.6 mph 8.0 mph 51 % 0.0 in
18:52 19.3 °F 9.5 °F 1021.6 in ENE 4.8 mph 4.8 mph 53 % 0.0 in
19:02 19.4 °F 9.6 °F 1021.6 in Calm   8.0 mph 53 % 0.0 in
19:12 19.2 °F 9.9 °F 1021.6 in Calm   8.0 mph 55 % 0.0 in
19:17 19.2 °F 9.7 °F 1021.6 in Calm   6.4 mph 54 % 0.0 in
19:22 19.1 °F 9.6 °F 1021.6 in ESE 3.2 mph 6.4 mph 54 % 0.0 in
19:32 18.8 °F 9.6 °F 1021.6 in Calm   4.8 mph 55 % 0.0 in
19:37 18.8 °F 9.6 °F 1021.6 in Calm   6.4 mph 55 % 0.0 in
19:42 18.9 °F 9.7 °F 1021.6 in East 1.6 mph 6.4 mph 55 % 0.0 in
19:52 18.7 °F 9.7 °F 1021.6 in East 1.6 mph 6.4 mph 56 % 0.0 in
19:57 18.4 °F 9.7 °F 1021.6 in Calm   6.4 mph 57 % 0.0 in
20:02 18.2 °F 9.8 °F 1021.6 in Calm   6.4 mph 58 % 0.0 in
20:12 17.7 °F 9.8 °F 1021.6 in Calm   3.2 mph 60 % 0.0 in
20:17 17.6 °F 10.0 °F 1021.6 in Calm   1.6 mph 61 % 0.0 in
20:22 17.3 °F 9.7 °F 1021.6 in Calm   1.6 mph 61 % 0.0 in
20:32 16.7 °F 9.9 °F 1021.9 in Calm   1.6 mph 64 % 0.0 in
20:37 16.4 °F 9.8 °F 1021.9 in Calm   1.6 mph 65 % 0.0 in
20:42 16.2 °F 9.8 °F 1021.9 in Calm   1.6 mph 66 % 0.0 in
20:52 15.8 °F 9.7 °F 1021.9 in Calm   1.6 mph 67 % 0.0 in
21:02 15.1 °F 9.9 °F 1021.9 in Calm   1.6 mph 71 % 0.0 in
21:12 14.8 °F 9.8 °F 1022.2 in Calm   1.6 mph 72 % 0.0 in
21:17 14.9 °F 9.7 °F 1022.2 in Calm     71 % 0.0 in
21:22 15.0 °F 10.0 °F 1022.2 in Calm     72 % 0.0 in
21:32 14.7 °F 9.7 °F 1022.2 in Calm     72 % 0.0 in
21:42 14.1 °F 9.9 °F 1022.2 in WNW 1.6 mph   76 % 0.0 in
21:52 13.7 °F 9.7 °F 1022.2 in North 1.6 mph 3.2 mph 77 % 0.0 in
21:57 14.0 °F 10.2 °F 1022.2 in Calm   3.2 mph 78 % 0.0 in
22:02 14.1 °F 10.3 °F 1022.2 in Calm   3.2 mph 78 % 0.0 in
22:07 14.1 °F 10.1 °F 1022.2 in Calm   3.2 mph 77 % 0.0 in
22:12 13.9 °F 10.1 °F 1022.2 in Calm   3.2 mph 78 % 0.0 in
22:17 13.7 °F 9.9 °F 1022.2 in Calm     78 % 0.0 in
22:22 13.6 °F 10.0 °F 1022.2 in Calm   1.6 mph 79 % 0.0 in
22:27 13.6 °F 10.0 °F 1022.2 in Calm   1.6 mph 79 % 0.0 in
22:32 13.6 °F 10.2 °F 1022.2 in Calm   1.6 mph 80 % 0.0 in
22:37 13.6 °F 10.2 °F 1022.2 in Calm   1.6 mph 80 % 0.0 in
22:47 13.5 °F 10.5 °F 1022.6 in Calm   1.6 mph 82 % 0.0 in
22:52 13.5 °F 10.5 °F 1022.6 in Calm   1.6 mph 82 % 0.0 in
22:57 13.4 °F 10.4 °F 1022.6 in Calm     82 % 0.0 in
23:02 13.4 °F 10.4 °F 1022.6 in Calm     82 % 0.0 in
23:07 13.4 °F 10.6 °F 1022.6 in Calm     83 % 0.0 in
23:12 13.5 °F 10.7 °F 1022.6 in Calm     83 % 0.0 in
23:17 13.4 °F 10.4 °F 1022.6 in Calm     82 % 0.0 in
23:22 13.3 °F 10.3 °F 1022.6 in Calm     82 % 0.0 in
23:27 13.1 °F 10.3 °F 1022.6 in Calm     83 % 0.0 in
23:32 13.1 °F 10.3 °F 1022.6 in Calm     83 % 0.0 in
23:37 13.1 °F 10.3 °F 1022.6 in Calm     83 % 0.0 in
23:42 13.2 °F 10.4 °F 1022.6 in Calm     83 % 0.0 in
23:47 13.1 °F 10.5 °F 1022.6 in Calm     84 % 0.0 in
23:52 13.2 °F 10.6 °F 1022.6 in Calm     84 % 0.0 in
23:57 13.2 °F 10.4 °F 1022.6 in Calm     83 % 0.0 in
Meteo18
Compliments of Weather Underground - 4 mb

Script developed by  Jim McMurry - jmcmurry@mwt.net Adapted for the template by  Wim van der Kuil - Leuven-Template.eu

You find our weather info also at:

European Weather Network

Weather Underground

Equipment we use:

Weather-station
Davis Vue

Weather-program
Meteobridge

Weather-server
Raspberry PI 2 B+

Provider
1 and 1

Davis Vue

Meteobridge

Raspberry PI 2 B+

1 and 1